Terminal Aerodrome Forecast
Issued by NWS Pocatello, ID

Home | Current Version | Previous Version | Text Only | Print | Product List | Glossary On
Versions: 1 2 3 4 5 6 7 8 9 10 11 12 13 14 15 16
303
FTUS45 KPIH 140959 AAB
TAFPIH
TAF AMD
KPIH 140959Z 1410/1506 22014KT P6SM VCSH BKN025 OVC040
     FM141600 23019G29KT P6SM -SHRA BKN020 OVC040
     FM142200 23021G31KT P6SM VCSH SCT020 BKN040=

USA.gov is the U.S. government's official web portal to all federal, state and local government web resources and services.